createdAt,value
2019-05-14T00:00:17.933Z,85.81
2019-05-14T00:02:44.900Z,85.47
2019-05-14T00:05:12.265Z,85.84
2019-05-14T00:07:41.392Z,83.60
2019-05-14T00:10:08.266Z,85.50
2019-05-14T00:12:35.224Z,85.41
2019-05-14T00:15:02.344Z,85.05
2019-05-14T00:17:29.355Z,85.44
2019-05-14T00:20:06.337Z,84.61
2019-05-14T00:22:25.153Z,83.72
2019-05-14T00:24:52.204Z,84.65
2019-05-14T00:27:19.237Z,83.84
2019-05-14T00:29:46.169Z,87.47
2019-05-14T00:32:13.204Z,85.97
2019-05-14T00:34:42.149Z,85.94
2019-05-14T00:37:11.192Z,88.96
2019-05-14T00:39:37.846Z,87.42
2019-05-14T00:42:04.815Z,89.49
2019-05-14T00:44:32.305Z,87.50
2019-05-14T00:47:01.990Z,86.44
2019-05-14T00:49:28.485Z,88.12
2019-05-14T00:51:55.476Z,89.34
2019-05-14T00:54:22.435Z,87.52
2019-05-14T00:56:49.417Z,88.94
2019-05-14T00:59:16.359Z,87.31
2019-05-14T01:01:43.344Z,88.51
2019-05-14T01:04:11.813Z,88.51
2019-05-14T01:06:38.869Z,88.09
2019-05-14T01:09:06.043Z,88.09
2019-05-14T01:11:33.001Z,88.02
2019-05-14T01:14:01.759Z,88.65
2019-05-14T01:16:28.823Z,87.52
2019-05-14T01:18:55.802Z,89.95
2019-05-14T01:21:22.726Z,89.98
2019-05-14T01:23:51.398Z,89.35
2019-05-14T01:26:18.460Z,89.58
2019-05-14T01:28:45.432Z,89.05
2019-05-14T01:31:14.778Z,88.34
2019-05-14T01:33:41.252Z,89.16
2019-05-14T01:36:08.175Z,88.82
2019-05-14T01:38:35.147Z,90.79
2019-05-14T01:41:02.188Z,91.38
2019-05-14T01:43:31.285Z,93.16
2019-05-14T01:45:58.017Z,93.79
2019-05-14T01:48:25.008Z,93.83
2019-05-14T01:50:52.246Z,91.96
2019-05-14T01:53:19.409Z,93.50
2019-05-14T01:55:46.942Z,92.78
2019-05-14T01:58:13.916Z,93.83
2019-05-14T02:00:41.603Z,94.35
2019-05-14T02:03:08.736Z,95.69
2019-05-14T02:05:35.664Z,94.75
2019-05-14T02:08:02.627Z,96.30
2019-05-14T02:10:31.483Z,96.24
2019-05-14T02:12:58.440Z,97.51
2019-05-14T02:15:36.300Z,95.77
2019-05-14T02:17:54.210Z,96.74
2019-05-14T02:20:21.676Z,95.12
2019-05-14T02:22:48.735Z,97.00
2019-05-14T02:25:15.669Z,95.65
2019-05-14T02:27:42.597Z,97.19
2019-05-14T02:30:10.791Z,96.79
2019-05-14T02:32:40.406Z,97.70
2019-05-14T02:35:09.875Z,97.70
2019-05-14T02:37:39.266Z,99.42
2019-05-14T02:40:05.186Z,99.51
2019-05-14T02:42:32.162Z,98.81
2019-05-14T02:44:59.412Z,99.19
2019-05-14T02:47:29.666Z,99.03
2019-05-14T02:49:55.307Z,99.14
2019-05-14T02:52:22.242Z,99.70
2019-05-14T02:54:49.749Z,99.76
2019-05-14T02:57:19.713Z,100.00
2019-05-14T02:59:45.596Z,100.00
2019-05-14T03:02:12.521Z,100.00
2019-05-14T03:04:39.982Z,100.00
2019-05-14T03:07:10.527Z,100.00
2019-05-14T03:09:39.950Z,100.00
2019-05-14T03:12:04.870Z,100.00
2019-05-14T03:14:31.824Z,100.00
2019-05-14T03:16:59.592Z,100.00
2019-05-14T03:19:29.593Z,100.00
2019-05-14T03:21:55.555Z,100.00
2019-05-14T03:24:22.519Z,100.00
2019-05-14T03:26:50.188Z,100.00
2019-05-14T03:29:19.648Z,100.00
2019-05-14T03:31:51.901Z,100.00
2019-05-14T03:34:15.058Z,100.00
2019-05-14T03:36:43.390Z,100.00
2019-05-14T03:39:10.944Z,100.00
2019-05-14T03:41:39.745Z,100.00
2019-05-14T03:44:09.903Z,100.00
2019-05-14T03:46:45.847Z,100.00
2019-05-14T03:49:04.782Z,100.00
2019-05-14T03:51:31.707Z,100.00
2019-05-14T03:54:05.849Z,100.00
2019-05-14T03:56:29.907Z,100.00
2019-05-14T03:58:59.662Z,100.00
2019-05-14T04:01:29.323Z,100.00
2019-05-14T04:03:54.784Z,100.00
2019-05-14T04:06:24.511Z,100.00
2019-05-14T04:08:52.053Z,100.00
2019-05-14T04:11:20.930Z,100.00
2019-05-14T04:13:51.380Z,99.59
2019-05-14T04:16:21.458Z,100.00
2019-05-14T04:18:50.399Z,100.00
2019-05-14T04:21:20.480Z,100.00
2019-05-14T04:23:50.833Z,100.00
2019-05-14T04:26:20.119Z,100.00
2019-05-14T04:28:50.020Z,100.00
2019-05-14T04:31:19.228Z,100.00
2019-05-14T04:33:50.071Z,100.00
2019-05-14T04:36:19.562Z,100.00
2019-05-14T04:38:51.480Z,100.00
2019-05-14T04:41:19.477Z,100.00
2019-05-14T04:43:49.655Z,100.00
2019-05-14T04:46:15.211Z,100.00
2019-05-14T04:48:43.815Z,99.57
2019-05-14T04:51:11.020Z,99.26
2019-05-14T04:53:39.399Z,99.12
2019-05-14T04:56:09.823Z,99.72
2019-05-14T04:58:35.595Z,100.00
2019-05-14T05:01:02.561Z,99.71
2019-05-14T05:03:31.382Z,100.00
2019-05-14T05:05:59.045Z,99.54
2019-05-14T05:08:26.210Z,99.31
2019-05-14T05:10:53.178Z,98.57
2019-05-14T05:13:20.136Z,98.90
2019-05-14T05:15:48.670Z,98.10
2019-05-14T05:18:18.425Z,97.50
2019-05-14T05:20:44.732Z,97.36
2019-05-14T05:23:11.778Z,96.69
2019-05-14T05:25:38.744Z,95.86
2019-05-14T05:28:05.704Z,96.21
2019-05-14T05:30:32.701Z,95.41
2019-05-14T05:32:59.838Z,95.50
2019-05-14T05:35:29.156Z,95.57
2019-05-14T05:37:58.232Z,94.52
2019-05-14T05:40:24.721Z,93.32
2019-05-14T05:42:52.914Z,93.17
2019-05-14T05:45:19.894Z,93.17
2019-05-14T05:47:55.256Z,92.58
2019-05-14T05:50:15.865Z,92.71
2019-05-14T05:52:42.833Z,91.76
2019-05-14T05:55:09.989Z,90.95
2019-05-14T05:57:39.224Z,90.06
2019-05-14T06:00:06.325Z,89.49
2019-05-14T06:02:33.307Z,89.33
2019-05-14T06:05:00.366Z,89.82
2019-05-14T06:07:28.891Z,90.22
2019-05-14T06:09:56.091Z,90.57
2019-05-14T06:12:23.078Z,90.11
2019-05-14T06:14:50.018Z,90.46
2019-05-14T06:17:19.162Z,90.52
2019-05-14T06:19:45.831Z,89.92
2019-05-14T06:22:12.898Z,91.27
2019-05-14T06:24:39.837Z,90.90
2019-05-14T06:27:09.169Z,89.77
2019-05-14T06:29:38.120Z,89.90
2019-05-14T06:32:04.526Z,89.90
2019-05-14T06:34:31.463Z,89.11
2019-05-14T06:36:59.144Z,88.60
2019-05-14T06:39:28.225Z,88.49
2019-05-14T06:41:55.110Z,88.61
2019-05-14T06:44:22.058Z,88.63
2019-05-14T06:46:52.385Z,88.23
2019-05-14T06:49:18.349Z,89.38
2019-05-14T06:51:45.525Z,89.56
2019-05-14T06:54:12.467Z,88.92
2019-05-14T06:56:39.420Z,88.72
2019-05-14T06:59:08.813Z,87.73
2019-05-14T07:01:35.255Z,86.79
2019-05-14T07:04:02.223Z,86.51
2019-05-14T07:06:29.289Z,86.16
2019-05-14T07:08:58.674Z,86.22
2019-05-14T07:11:25.148Z,84.98
2019-05-14T07:13:52.093Z,85.19
2019-05-14T07:16:19.850Z,84.79
2019-05-14T07:18:52.975Z,85.33
2019-05-14T07:21:18.480Z,85.07
2019-05-14T07:23:44.803Z,84.95
2019-05-14T07:26:11.753Z,84.57
2019-05-14T07:28:42.235Z,84.66
2019-05-14T07:31:09.804Z,83.01
2019-05-14T07:33:38.836Z,82.70
2019-05-14T07:36:05.311Z,82.45
2019-05-14T07:38:32.271Z,81.26
2019-05-14T07:40:59.182Z,82.36
2019-05-14T07:43:28.544Z,82.29
2019-05-14T07:45:54.991Z,81.08
2019-05-14T07:48:21.996Z,81.65
2019-05-14T07:50:51.896Z,81.75
2019-05-14T07:53:18.059Z,81.26
2019-05-14T07:55:45.210Z,80.13
2019-05-14T07:58:12.208Z,81.58
2019-05-14T08:00:40.204Z,81.00
2019-05-14T08:03:08.256Z,80.86
2019-05-14T08:05:35.214Z,80.69
2019-05-14T08:08:02.645Z,80.92
2019-05-14T08:10:29.648Z,79.48
2019-05-14T08:12:58.780Z,77.49
2019-05-14T08:15:25.464Z,76.07
2019-05-14T08:17:52.435Z,76.90
2019-05-14T08:20:20.384Z,75.93
2019-05-14T08:22:49.014Z,75.87
2019-05-14T08:25:16.264Z,74.84
2019-05-14T08:27:43.247Z,74.97
2019-05-14T08:30:10.494Z,74.76
2019-05-14T08:32:39.078Z,73.18
2019-05-14T08:35:08.890Z,72.85
2019-05-14T08:37:35.731Z,72.59
2019-05-14T08:40:03.035Z,72.54
2019-05-14T08:42:34.072Z,71.73
2019-05-14T08:44:59.347Z,70.35
2019-05-14T08:47:28.980Z,70.34
2019-05-14T08:49:55.387Z,69.57
2019-05-14T08:52:22.347Z,69.26
2019-05-14T08:55:04.362Z,67.29
2019-05-14T08:57:19.116Z,66.77
2019-05-14T08:59:48.602Z,66.99
2019-05-14T09:02:15.078Z,65.27
2019-05-14T09:04:44.950Z,67.22
2019-05-14T09:07:12.115Z,65.03
2019-05-14T09:09:39.089Z,65.86
2019-05-14T09:12:12.177Z,64.20
2019-05-14T09:14:34.992Z,62.31
2019-05-14T09:17:01.926Z,59.77
2019-05-14T09:19:28.904Z,59.81
2019-05-14T09:21:58.617Z,58.54
2019-05-14T09:24:24.723Z,58.47
2019-05-14T09:26:51.704Z,58.39
2019-05-14T09:29:25.488Z,59.26
2019-05-14T09:31:49.439Z,59.54
2019-05-14T09:34:16.487Z,59.72
2019-05-14T09:36:43.420Z,59.13
2019-05-14T09:39:12.339Z,59.32
2019-05-14T09:41:39.394Z,58.31
2019-05-14T09:44:06.404Z,59.21
2019-05-14T09:46:33.359Z,57.86
2019-05-14T09:49:00.313Z,58.36
2019-05-14T09:51:28.797Z,58.41
2019-05-14T09:53:55.955Z,55.94
2019-05-14T09:56:23.219Z,54.71
2019-05-14T09:58:50.178Z,53.94
2019-05-14T10:01:19.396Z,52.83
2019-05-14T10:03:45.991Z,53.53
2019-05-14T10:06:12.968Z,53.90
2019-05-14T10:08:40.183Z,54.63
2019-05-14T10:11:07.116Z,53.65
2019-05-14T10:13:34.064Z,54.81
2019-05-14T10:16:01.060Z,53.11
2019-05-14T10:18:28.485Z,53.26
2019-05-14T10:20:55.590Z,53.39
2019-05-14T10:23:22.557Z,52.69
2019-05-14T10:25:49.493Z,51.49
2019-05-14T10:28:19.056Z,50.36
2019-05-14T10:30:45.463Z,51.43
2019-05-14T10:33:15.024Z,52.08
2019-05-14T10:35:41.594Z,52.90
2019-05-14T10:38:08.927Z,53.11
2019-05-14T10:40:38.213Z,51.20
2019-05-14T10:43:04.872Z,49.02
2019-05-14T10:45:31.894Z,48.80
2019-05-14T10:47:58.830Z,49.67
2019-05-14T10:50:25.788Z,48.23
2019-05-14T10:52:52.862Z,48.44
2019-05-14T10:55:19.818Z,47.13
2019-05-14T10:57:46.800Z,47.60
2019-05-14T11:00:14.205Z,47.52
2019-05-14T11:02:41.122Z,47.72
2019-05-14T11:05:08.395Z,47.26
2019-05-14T11:07:41.393Z,48.99
2019-05-14T11:10:09.037Z,48.68
2019-05-14T11:12:35.432Z,48.57
2019-05-14T11:15:02.447Z,45.38
2019-05-14T11:17:29.419Z,43.81
2019-05-14T11:19:58.542Z,43.45
2019-05-14T11:22:25.243Z,43.91
2019-05-14T11:24:52.208Z,46.19
2019-05-14T11:27:19.296Z,46.39
2019-05-14T11:29:48.871Z,45.52
2019-05-14T11:32:15.173Z,46.04
2019-05-14T11:34:42.145Z,45.56
2019-05-14T11:37:09.081Z,45.91
2019-05-14T11:39:37.963Z,45.05
2019-05-14T11:42:05.098Z,44.50
2019-05-14T11:44:32.060Z,45.65
2019-05-14T11:47:02.455Z,43.52
2019-05-14T11:49:27.877Z,44.07
2019-05-14T11:52:04.205Z,42.65
2019-05-14T11:54:23.732Z,42.72
2019-05-14T11:56:50.713Z,41.81
2019-05-14T11:59:18.956Z,39.69
2019-05-14T12:01:49.275Z,40.77
2019-05-14T12:04:15.865Z,41.48
2019-05-14T12:06:42.843Z,42.19
2019-05-14T12:09:11.870Z,41.25
2019-05-14T12:11:38.797Z,39.44
2019-05-14T12:14:08.577Z,41.28
2019-05-14T12:16:35.326Z,40.80
2019-05-14T12:19:02.366Z,40.04
2019-05-14T12:21:29.354Z,40.73
2019-05-14T12:24:03.152Z,39.33
2019-05-14T12:26:25.226Z,39.65
2019-05-14T12:28:55.903Z,38.99
2019-05-14T12:31:21.052Z,40.27
2019-05-14T12:33:48.873Z,38.76
2019-05-14T12:36:19.028Z,38.74
2019-05-14T12:38:45.029Z,37.81
2019-05-14T12:41:12.096Z,38.40
2019-05-14T12:43:39.825Z,37.44
2019-05-14T12:46:10.458Z,38.31
2019-05-14T12:48:39.039Z,38.51
2019-05-14T12:51:05.747Z,38.45
2019-05-14T12:53:32.698Z,37.21
2019-05-14T12:55:59.678Z,37.33
2019-05-14T12:58:28.515Z,38.43
2019-05-14T13:00:55.754Z,38.29
2019-05-14T13:03:22.720Z,38.17
2019-05-14T13:05:49.696Z,38.15
2019-05-14T13:08:18.432Z,35.68
2019-05-14T13:10:45.588Z,39.52
2019-05-14T13:13:12.605Z,34.69
2019-05-14T13:15:39.608Z,37.72
2019-05-14T13:18:08.702Z,38.88
2019-05-14T13:20:35.450Z,38.97
2019-05-14T13:23:02.389Z,38.48
2019-05-14T13:25:30.411Z,38.04
2019-05-14T13:27:59.435Z,37.22
2019-05-14T13:30:26.485Z,37.41
2019-05-14T13:32:53.490Z,37.45
2019-05-14T13:35:20.449Z,38.03
2019-05-14T13:37:49.113Z,37.95
2019-05-14T13:40:20.819Z,38.71
2019-05-14T13:42:45.643Z,38.48
2019-05-14T13:45:13.524Z,39.27
2019-05-14T13:47:40.514Z,39.96
2019-05-14T13:50:08.712Z,39.49
2019-05-14T13:52:38.704Z,39.44
2019-05-14T13:55:05.042Z,39.38
2019-05-14T13:57:32.019Z,38.05
2019-05-14T13:59:59.093Z,38.68
2019-05-14T14:02:28.865Z,38.98
2019-05-14T14:04:54.996Z,38.06
2019-05-14T14:07:21.945Z,38.57
2019-05-14T14:09:49.891Z,37.73
2019-05-14T14:12:17.009Z,37.80
2019-05-14T14:14:43.970Z,36.48
2019-05-14T14:17:10.949Z,37.77
2019-05-14T14:19:38.865Z,37.49
2019-05-14T14:22:06.006Z,38.01
2019-05-14T14:24:32.956Z,38.21
2019-05-14T14:26:59.994Z,36.98
2019-05-14T14:29:26.964Z,35.57
2019-05-14T14:31:53.981Z,36.27
2019-05-14T14:34:20.946Z,36.43
2019-05-14T14:36:50.017Z,36.83
2019-05-14T14:39:19.125Z,36.31
2019-05-14T14:41:45.727Z,37.48
2019-05-14T14:44:12.697Z,37.46
2019-05-14T14:46:39.675Z,37.32
2019-05-14T14:49:06.664Z,36.44
2019-05-14T14:51:33.608Z,37.84
2019-05-14T14:54:10.687Z,38.50
2019-05-14T14:56:31.281Z,37.50
2019-05-14T14:58:58.249Z,37.10
2019-05-14T15:01:25.323Z,37.33
2019-05-14T15:03:52.371Z,37.76
2019-05-14T15:06:19.371Z,37.06
2019-05-14T15:08:49.377Z,36.93
2019-05-14T15:11:15.241Z,37.83
2019-05-14T15:13:42.237Z,38.30
2019-05-14T15:16:13.526Z,38.66
2019-05-14T15:18:38.758Z,39.62
2019-05-14T15:21:05.946Z,37.82
2019-05-14T15:23:33.001Z,37.54
2019-05-14T15:25:59.965Z,37.77
2019-05-14T15:28:27.026Z,36.87
2019-05-14T15:30:53.996Z,37.28
2019-05-14T15:33:20.986Z,37.05
2019-05-14T15:35:49.065Z,37.19
2019-05-14T15:38:16.320Z,38.68
2019-05-14T15:40:43.254Z,37.13
2019-05-14T15:43:10.255Z,36.27
2019-05-14T15:45:37.894Z,36.16
2019-05-14T15:48:09.015Z,36.21
2019-05-14T15:50:38.776Z,36.55
2019-05-14T15:53:04.958Z,36.55
2019-05-14T15:55:31.904Z,38.59
2019-05-14T15:57:59.168Z,37.62
2019-05-14T16:00:28.998Z,37.71
2019-05-14T16:02:55.079Z,37.88
2019-05-14T16:05:22.076Z,37.31
2019-05-14T16:07:49.554Z,37.33
2019-05-14T16:10:16.899Z,38.04
2019-05-14T16:12:43.822Z,37.44
2019-05-14T16:15:10.814Z,37.71
2019-05-14T16:17:47.627Z,37.75
2019-05-14T16:20:08.967Z,37.54
2019-05-14T16:22:39.348Z,37.12
2019-05-14T16:25:05.010Z,37.26
2019-05-14T16:27:31.988Z,38.07
2019-05-14T16:29:58.980Z,36.97
2019-05-14T16:32:28.370Z,38.09
2019-05-14T16:34:54.807Z,38.15
2019-05-14T16:37:21.761Z,37.15
2019-05-14T16:39:49.058Z,37.32
2019-05-14T16:42:20.292Z,35.73
2019-05-14T16:44:44.963Z,35.72
2019-05-14T16:47:11.898Z,35.98
2019-05-14T16:49:38.902Z,35.82
2019-05-14T16:52:08.868Z,37.28
2019-05-14T16:54:34.717Z,38.06
2019-05-14T16:57:01.673Z,37.02
2019-05-14T16:59:29.567Z,37.34
2019-05-14T17:01:58.518Z,37.06
2019-05-14T17:04:25.693Z,37.84
2019-05-14T17:06:52.641Z,37.91
2019-05-14T17:09:19.626Z,37.93
2019-05-14T17:11:48.232Z,38.23
2019-05-14T17:14:15.250Z,38.57
2019-05-14T17:16:42.225Z,38.78
2019-05-14T17:19:09.379Z,39.92
2019-05-14T17:21:38.885Z,39.13
2019-05-14T17:24:05.374Z,39.26
2019-05-14T17:26:32.345Z,38.62
2019-05-14T17:28:59.769Z,38.39
2019-05-14T17:31:26.862Z,38.77
2019-05-14T17:33:53.812Z,38.28
2019-05-14T17:36:20.788Z,38.52
2019-05-14T17:38:49.163Z,37.92
2019-05-14T17:41:16.535Z,37.58
2019-05-14T17:43:43.489Z,37.64
2019-05-14T17:46:10.479Z,37.11
2019-05-14T17:48:39.107Z,37.63
2019-05-14T17:51:09.136Z,37.38
2019-05-14T17:53:35.341Z,37.30
2019-05-14T17:56:03.493Z,37.50
2019-05-14T17:58:30.429Z,37.58
2019-05-14T18:00:58.163Z,37.44
2019-05-14T18:03:25.263Z,37.52
2019-05-14T18:05:52.247Z,37.85
2019-05-14T18:08:19.189Z,38.35
2019-05-14T18:10:46.227Z,38.37
2019-05-14T18:13:13.179Z,38.73
2019-05-14T18:15:40.158Z,38.61
2019-05-14T18:18:08.879Z,38.52
2019-05-14T18:20:36.046Z,39.14
2019-05-14T18:23:02.980Z,38.68
2019-05-14T18:25:29.954Z,39.41
2019-05-14T18:27:56.936Z,39.98
2019-05-14T18:30:24.031Z,39.55
2019-05-14T18:32:50.983Z,39.52
2019-05-14T18:35:18.839Z,40.84
2019-05-14T18:37:48.137Z,40.80
2019-05-14T18:40:15.117Z,41.08
2019-05-14T18:42:42.075Z,41.12
2019-05-14T18:45:09.394Z,41.49
2019-05-14T18:47:36.340Z,41.90
2019-05-14T18:50:05.248Z,41.88
2019-05-14T18:52:32.176Z,41.75
2019-05-14T18:54:59.269Z,42.13
2019-05-14T18:57:28.513Z,42.85
2019-05-14T18:59:55.555Z,43.14
2019-05-14T19:02:22.964Z,43.21
2019-05-14T19:04:49.970Z,43.03
2019-05-14T19:07:18.927Z,43.95
2019-05-14T19:09:49.237Z,44.66
2019-05-14T19:12:16.011Z,44.75
2019-05-14T19:14:42.986Z,45.36
2019-05-14T19:17:09.976Z,45.72
2019-05-14T19:19:38.651Z,45.94
2019-05-14T19:22:05.795Z,45.91
2019-05-14T19:24:32.724Z,46.54
2019-05-14T19:26:59.706Z,46.34
2019-05-14T19:29:28.163Z,46.51
2019-05-14T19:31:55.342Z,46.96
2019-05-14T19:34:22.275Z,47.40
2019-05-14T19:36:49.253Z,47.18
2019-05-14T19:39:18.611Z,48.74
2019-05-14T19:41:45.134Z,48.64
2019-05-14T19:44:12.111Z,48.12
2019-05-14T19:46:39.084Z,48.09
2019-05-14T19:49:08.094Z,48.74
2019-05-14T19:51:34.904Z,49.18
2019-05-14T19:54:01.839Z,49.87
2019-05-14T19:56:29.422Z,48.74
2019-05-14T19:58:56.489Z,49.51
2019-05-14T20:01:23.457Z,49.75
2019-05-14T20:03:50.466Z,50.28
2019-05-14T20:06:18.728Z,50.75
2019-05-14T20:08:48.279Z,51.31
2019-05-14T20:11:14.850Z,52.15
2019-05-14T20:13:41.835Z,52.02
2019-05-14T20:16:08.816Z,52.68
2019-05-14T20:18:38.066Z,52.28
2019-05-14T20:21:04.659Z,52.92
2019-05-14T20:23:31.624Z,53.31
2019-05-14T20:25:58.775Z,52.66
2019-05-14T20:28:25.757Z,52.53
2019-05-14T20:30:52.733Z,53.22
2019-05-14T20:33:19.717Z,54.26
2019-05-14T20:35:48.555Z,53.75
2019-05-14T20:38:15.523Z,54.72
2019-05-14T20:40:42.445Z,55.44
2019-05-14T20:43:10.479Z,55.87
2019-05-14T20:45:39.077Z,56.85
2019-05-14T20:48:06.317Z,54.86
2019-05-14T20:50:33.318Z,55.40
2019-05-14T20:53:00.328Z,57.76
2019-05-14T20:55:28.644Z,56.94
2019-05-14T20:57:55.949Z,56.40
2019-05-14T21:00:22.888Z,56.74
2019-05-14T21:02:49.844Z,59.00
2019-05-14T21:05:18.754Z,57.24
2019-05-14T21:07:45.660Z,56.44
2019-05-14T21:10:13.596Z,58.25
2019-05-14T21:12:40.577Z,58.72
2019-05-14T21:15:08.969Z,58.80
2019-05-14T21:17:36.411Z,58.75
2019-05-14T21:20:03.605Z,58.34
2019-05-14T21:22:30.589Z,57.55
2019-05-14T21:24:57.514Z,57.97
2019-05-14T21:27:38.577Z,58.96
2019-05-14T21:29:53.322Z,57.79
2019-05-14T21:32:20.269Z,57.81
2019-05-14T21:34:49.171Z,58.57
2019-05-14T21:37:18.618Z,58.07
2019-05-14T21:39:44.955Z,57.14
2019-05-14T21:42:11.877Z,57.46
2019-05-14T21:44:39.294Z,56.00
2019-05-14T21:47:08.256Z,56.74
2019-05-14T21:49:35.167Z,57.61
2019-05-14T21:52:02.117Z,58.67
2019-05-14T21:54:31.087Z,57.83
2019-05-14T21:56:58.734Z,58.38
2019-05-14T21:59:28.002Z,58.73
2019-05-14T22:01:54.565Z,58.93
2019-05-14T22:04:21.541Z,60.91
2019-05-14T22:06:49.071Z,61.36
2019-05-14T22:09:16.160Z,61.07
2019-05-14T22:11:43.101Z,59.51
2019-05-14T22:14:10.073Z,59.03
2019-05-14T22:16:38.168Z,60.98
2019-05-14T22:19:05.450Z,60.28
2019-05-14T22:21:32.407Z,60.07
2019-05-14T22:23:59.411Z,60.43
2019-05-14T22:26:28.210Z,60.14
2019-05-14T22:28:55.247Z,58.54
2019-05-14T22:31:22.186Z,57.80
2019-05-14T22:33:49.144Z,59.44
2019-05-14T22:36:20.896Z,61.07
2019-05-14T22:38:45.011Z,59.27
2019-05-14T22:41:11.956Z,61.46
2019-05-14T22:43:38.975Z,59.07
2019-05-14T22:46:08.316Z,58.56
2019-05-14T22:48:34.793Z,59.69
2019-05-14T22:51:01.728Z,60.45
2019-05-14T22:53:30.429Z,59.70
2019-05-14T22:55:58.616Z,61.82
2019-05-14T22:58:26.075Z,61.11
2019-05-14T23:01:06.722Z,61.54
2019-05-14T23:03:22.511Z,62.43
2019-05-14T23:05:49.475Z,63.61
2019-05-14T23:08:18.441Z,64.20
2019-05-14T23:10:45.322Z,64.21
2019-05-14T23:13:12.264Z,65.08
2019-05-14T23:15:39.244Z,66.12
2019-05-14T23:18:08.143Z,65.87
2019-05-14T23:20:35.062Z,66.11
2019-05-14T23:23:01.996Z,66.96
2019-05-14T23:25:29.318Z,67.06
2019-05-14T23:27:58.742Z,68.13
2019-05-14T23:30:32.274Z,67.86
2019-05-14T23:32:59.357Z,69.30
2019-05-14T23:35:28.332Z,69.70
2019-05-14T23:37:55.353Z,69.89
2019-05-14T23:40:22.414Z,69.55
2019-05-14T23:42:49.373Z,68.33
2019-05-14T23:45:18.810Z,68.91
2019-05-14T23:47:45.205Z,68.97
2019-05-14T23:50:12.181Z,70.78
2019-05-14T23:52:39.124Z,69.76
2019-05-14T23:55:08.618Z,68.97
2019-05-14T23:57:35.264Z,70.38
